createdAt,value
2022-09-22T00:01:18.000Z,0.27
2022-09-22T00:03:48.982Z,0.20
2022-09-22T00:06:18.348Z,0.10
2022-09-22T00:08:48.683Z,0.10
2022-09-22T00:11:19.246Z,0.20
2022-09-22T00:13:58.919Z,0.17
2022-09-22T00:16:34.112Z,0.10
2022-09-22T00:19:00.542Z,0.10
2022-09-22T00:21:27.934Z,0.10
2022-09-22T00:23:54.679Z,0.20
2022-09-22T00:26:23.074Z,0.10
2022-09-22T00:28:51.208Z,0.10
2022-09-22T00:31:23.763Z,0.17
2022-09-22T00:33:51.678Z,0.20
2022-09-22T00:36:19.516Z,0.10
2022-09-22T00:38:50.423Z,0.10
2022-09-22T00:41:29.450Z,0.10
2022-09-22T00:44:17.669Z,0.10
2022-09-22T00:46:47.522Z,0.20
2022-09-22T00:49:15.194Z,0.20
2022-09-22T00:51:44.546Z,0.20
2022-09-22T00:54:15.355Z,0.13
2022-09-22T00:56:53.328Z,0.20
2022-09-22T00:59:24.654Z,0.40
2022-09-22T01:04:26.561Z,0.20
2022-09-22T01:06:55.179Z,0.30
2022-09-22T01:09:21.550Z,0.20
2022-09-22T01:11:47.959Z,0.30
2022-09-22T01:14:50.336Z,0.20
2022-09-22T01:17:27.064Z,0.30
2022-09-22T01:20:09.080Z,0.25
2022-09-22T01:22:56.536Z,0.20
2022-09-22T01:25:55.427Z,0.20
2022-09-22T01:28:55.799Z,0.60
2022-09-22T01:31:39.168Z,0.10
2022-09-22T01:34:12.093Z,0.20
2022-09-22T01:36:47.294Z,0.10
2022-09-22T01:39:19.697Z,0.20
2022-09-22T01:42:03.378Z,0.30
2022-09-22T01:44:43.295Z,0.10
2022-09-22T01:47:31.182Z,0.20
2022-09-22T01:50:03.077Z,0.10
2022-09-22T01:52:33.425Z,0.20
2022-09-22T01:55:12.521Z,0.20
2022-09-22T01:57:57.161Z,0.30
2022-09-22T02:00:24.090Z,0.10
2022-09-22T02:03:14.536Z,0.40
2022-09-22T02:06:20.090Z,0.20
2022-09-22T02:09:01.584Z,0.20
2022-09-22T02:11:27.932Z,0.17
2022-09-22T02:13:54.776Z,0.10
2022-09-22T02:16:23.791Z,0.10
2022-09-22T02:19:11.940Z,0.10
2022-09-22T02:21:40.391Z,0.20
2022-09-22T02:24:07.354Z,0.17
2022-09-22T02:26:36.275Z,0.15
2022-09-22T02:29:07.973Z,0.13
2022-09-22T02:31:38.807Z,0.10
2022-09-22T02:34:06.951Z,0.10
2022-09-22T02:36:54.498Z,0.10
2022-09-22T02:39:39.610Z,0.20
2022-09-22T02:42:38.497Z,0.20
2022-09-22T02:45:40.010Z,0.20
2022-09-22T02:48:13.785Z,0.10
2022-09-22T02:50:41.383Z,0.10
2022-09-22T02:53:17.229Z,0.20
2022-09-22T02:55:44.986Z,0.50
2022-09-22T02:58:16.320Z,0.13
2022-09-22T03:00:43.997Z,0.20
2022-09-22T03:03:13.295Z,0.20
2022-09-22T03:05:39.914Z,0.20
2022-09-22T03:08:06.989Z,0.20
2022-09-22T03:10:34.145Z,0.20
2022-09-22T03:13:15.924Z,0.20
2022-09-22T03:15:44.488Z,0.37
2022-09-22T03:18:10.979Z,0.20
2022-09-22T03:20:37.419Z,0.30
2022-09-22T03:23:03.781Z,0.30
2022-09-22T03:25:30.155Z,0.40
2022-09-22T03:27:56.468Z,0.23
2022-09-22T03:30:22.840Z,0.17
2022-09-22T03:32:49.409Z,0.20
2022-09-22T03:35:15.922Z,0.20
2022-09-22T03:37:42.318Z,0.30
2022-09-22T03:40:08.933Z,0.20
2022-09-22T03:42:35.677Z,0.10
2022-09-22T03:45:04.165Z,0.20
2022-09-22T03:47:30.942Z,0.32
2022-09-22T03:49:57.378Z,0.20
2022-09-22T03:52:24.109Z,0.27
2022-09-22T03:54:52.087Z,0.20
2022-09-22T03:57:18.423Z,0.20
2022-09-22T03:59:44.718Z,0.22
2022-09-22T04:02:11.426Z,0.30
2022-09-22T04:04:37.780Z,0.30
2022-09-22T04:07:07.276Z,0.30
2022-09-22T04:09:34.089Z,0.32
2022-09-22T04:12:00.863Z,0.20
2022-09-22T04:14:27.382Z,0.38
2022-09-22T04:16:54.238Z,0.20
2022-09-22T04:19:20.702Z,0.30
2022-09-22T04:21:47.009Z,0.20
2022-09-22T04:24:13.446Z,0.17
2022-09-22T04:26:47.789Z,0.30
2022-09-22T04:29:26.114Z,0.20
2022-09-22T04:31:52.409Z,0.32
2022-09-22T04:34:18.830Z,0.35
2022-09-22T04:36:45.183Z,0.30
2022-09-22T04:39:11.578Z,0.40
2022-09-22T04:41:37.882Z,0.40
2022-09-22T04:44:04.195Z,0.30
2022-09-22T04:46:30.579Z,0.32
2022-09-22T04:48:57.098Z,0.38
2022-09-22T04:51:23.516Z,0.40
2022-09-22T04:53:49.876Z,0.60
2022-09-22T04:56:16.216Z,0.57
2022-09-22T04:58:42.627Z,0.30
2022-09-22T05:01:08.984Z,0.68
2022-09-22T05:03:38.139Z,0.35
2022-09-22T05:06:07.683Z,0.30
2022-09-22T05:08:34.193Z,0.30
2022-09-22T05:11:00.564Z,0.30
2022-09-22T05:13:26.999Z,0.30
2022-09-22T05:15:53.333Z,0.30
2022-09-22T05:18:20.639Z,0.30
2022-09-22T05:20:47.105Z,0.30
2022-09-22T05:23:13.607Z,0.35
2022-09-22T05:25:40.275Z,0.28
2022-09-22T05:28:06.609Z,0.25
2022-09-22T05:30:33.037Z,0.30
2022-09-22T05:32:59.725Z,0.32
2022-09-22T05:35:26.262Z,0.30
2022-09-22T05:37:53.105Z,0.30
2022-09-22T05:40:20.270Z,0.30
2022-09-22T05:42:51.644Z,0.50
2022-09-22T05:45:19.712Z,0.30
2022-09-22T05:47:46.515Z,0.60
2022-09-22T05:50:14.666Z,0.60
2022-09-22T05:52:41.018Z,0.85
2022-09-22T05:55:08.449Z,0.77
2022-09-22T05:57:34.929Z,0.55
2022-09-22T06:00:01.829Z,0.60
2022-09-22T06:02:28.285Z,0.57
2022-09-22T06:04:54.659Z,0.45
2022-09-22T06:07:22.103Z,0.40
2022-09-22T06:09:49.024Z,0.70
2022-09-22T06:12:16.085Z,0.50
2022-09-22T06:14:42.862Z,0.30
2022-09-22T06:17:11.847Z,0.75
2022-09-22T06:19:39.006Z,0.50
2022-09-22T06:22:05.984Z,0.30
2022-09-22T06:24:32.355Z,0.60
2022-09-22T06:26:58.782Z,0.30
2022-09-22T06:29:26.735Z,0.25
2022-09-22T06:31:53.104Z,0.40
2022-09-22T06:34:19.546Z,0.38
2022-09-22T06:36:45.843Z,0.43
2022-09-22T06:39:13.065Z,0.40
2022-09-22T06:41:39.574Z,0.40
2022-09-22T06:44:06.691Z,0.20
2022-09-22T06:46:34.069Z,0.30
2022-09-22T06:49:00.843Z,0.30
2022-09-22T06:51:29.923Z,0.40
2022-09-22T06:53:56.651Z,0.50
2022-09-22T06:56:25.378Z,0.23
2022-09-22T06:59:09.417Z,0.30
2022-09-22T07:01:37.068Z,0.50
2022-09-22T07:04:04.525Z,0.57
2022-09-22T07:06:30.892Z,0.40
2022-09-22T07:08:57.310Z,0.63
2022-09-22T07:11:23.791Z,0.77
2022-09-22T07:13:53.218Z,1.00
2022-09-22T07:16:22.019Z,1.88
2022-09-22T07:18:51.126Z,3.13
2022-09-22T07:21:27.382Z,2.60
2022-09-22T07:23:55.619Z,2.60
2022-09-22T07:26:28.746Z,3.65
2022-09-22T07:28:58.358Z,3.13
2022-09-22T07:31:30.507Z,3.50
2022-09-22T07:34:00.119Z,3.07
2022-09-22T07:36:29.157Z,3.17
2022-09-22T07:38:57.546Z,3.33
2022-09-22T07:41:29.190Z,3.63
2022-09-22T07:44:19.032Z,3.30
2022-09-22T07:46:45.875Z,3.23
2022-09-22T07:49:12.392Z,2.92
2022-09-22T07:51:38.740Z,2.80
2022-09-22T07:54:07.928Z,2.58
2022-09-22T07:56:35.769Z,2.85
2022-09-22T07:59:05.135Z,2.53
2022-09-22T08:01:34.598Z,2.67
2022-09-22T08:04:01.464Z,2.78
2022-09-22T08:06:28.754Z,2.53
2022-09-22T08:08:57.450Z,3.00
2022-09-22T08:11:26.810Z,2.47
2022-09-22T08:14:04.956Z,2.53
2022-09-22T08:16:36.522Z,3.40
2022-09-22T08:19:10.399Z,2.83
2022-09-22T08:21:40.759Z,3.70
2022-09-22T08:24:16.085Z,3.90
2022-09-22T08:26:48.142Z,3.95
2022-09-22T08:29:14.751Z,4.32
2022-09-22T08:31:42.197Z,3.00
2022-09-22T08:34:09.323Z,3.63
2022-09-22T08:36:37.111Z,4.00
2022-09-22T08:39:05.019Z,3.90
2022-09-22T08:41:42.879Z,4.82
2022-09-22T08:44:11.871Z,3.08
2022-09-22T08:46:44.092Z,3.97
2022-09-22T08:49:32.245Z,4.20
2022-09-22T08:52:07.565Z,3.50
2022-09-22T08:54:35.232Z,4.78
2022-09-22T08:57:21.378Z,3.67
2022-09-22T08:59:54.547Z,4.65
2022-09-22T09:02:35.909Z,3.53
2022-09-22T09:05:05.023Z,3.47
2022-09-22T09:07:37.127Z,3.60
2022-09-22T09:10:19.569Z,3.60
2022-09-22T09:13:04.258Z,3.35
2022-09-22T09:15:47.278Z,3.30
2022-09-22T09:18:16.517Z,3.03
2022-09-22T09:20:48.415Z,3.22
2022-09-22T09:23:18.854Z,2.80
2022-09-22T09:25:49.619Z,2.80
2022-09-22T09:28:27.848Z,2.93
2022-09-22T09:30:59.400Z,2.00
2022-09-22T09:33:47.354Z,2.50
2022-09-22T09:36:22.746Z,2.53
2022-09-22T09:38:54.689Z,2.85
2022-09-22T09:41:23.822Z,2.27
2022-09-22T09:43:53.293Z,1.90
2022-09-22T09:46:32.906Z,2.05
2022-09-22T09:49:11.093Z,2.10
2022-09-22T09:51:42.725Z,2.30
2022-09-22T09:54:16.674Z,2.40
2022-09-22T09:57:12.886Z,2.42
2022-09-22T10:00:00.429Z,2.15
2022-09-22T10:02:29.641Z,2.30
2022-09-22T10:04:59.989Z,1.80
2022-09-22T10:10:31.988Z,1.27
2022-09-22T10:13:04.179Z,1.48
2022-09-22T10:15:33.431Z,1.05
2022-09-22T10:17:59.951Z,1.83
2022-09-22T10:20:33.941Z,1.20
2022-09-22T10:23:21.645Z,0.95
2022-09-22T10:25:50.859Z,0.77
2022-09-22T10:28:19.742Z,0.88
2022-09-22T10:31:02.390Z,1.23
2022-09-22T10:33:29.146Z,0.90
2022-09-22T10:36:07.858Z,1.00
2022-09-22T10:38:43.186Z,1.13
2022-09-22T10:41:17.740Z,0.80
2022-09-22T10:43:50.845Z,1.40
2022-09-22T10:46:34.628Z,0.70
2022-09-22T10:49:08.911Z,1.15
2022-09-22T10:51:55.440Z,0.90
2022-09-22T10:54:46.575Z,1.02
2022-09-22T10:57:34.202Z,1.15
2022-09-22T11:00:19.203Z,0.60
2022-09-22T11:03:06.232Z,0.80
2022-09-22T11:06:25.709Z,0.50
2022-09-22T11:09:38.926Z,0.40
2022-09-22T11:12:20.407Z,0.70
2022-09-22T11:15:02.147Z,0.57
2022-09-22T11:17:56.177Z,0.65
2022-09-22T11:20:36.687Z,0.90
2022-09-22T11:23:09.248Z,1.48
2022-09-22T11:26:13.914Z,0.40
2022-09-22T11:29:07.218Z,0.70
2022-09-22T11:31:54.853Z,0.50
2022-09-22T11:34:33.329Z,0.55
2022-09-22T11:37:25.792Z,0.73
2022-09-22T11:40:17.224Z,0.70
2022-09-22T11:43:21.682Z,0.80
2022-09-22T11:46:06.682Z,0.50
2022-09-22T11:48:52.326Z,0.68
2022-09-22T11:51:36.926Z,0.40
2022-09-22T11:54:21.857Z,0.40
2022-09-22T11:57:09.319Z,0.50
2022-09-22T11:59:46.528Z,0.88
2022-09-22T12:02:37.671Z,0.90
2022-09-22T12:05:12.636Z,0.93
2022-09-22T12:07:54.067Z,0.60
2022-09-22T12:10:35.040Z,0.70
2022-09-22T12:13:11.248Z,0.70
2022-09-22T12:16:12.520Z,0.88
2022-09-22T12:18:58.669Z,0.52
2022-09-22T12:21:49.823Z,0.80
2022-09-22T12:24:16.296Z,0.70
2022-09-22T12:26:46.164Z,0.65
2022-09-22T12:29:15.333Z,0.70
2022-09-22T12:31:43.714Z,1.00
2022-09-22T12:34:22.610Z,0.55
2022-09-22T12:36:53.242Z,0.43
2022-09-22T12:39:28.854Z,0.55
2022-09-22T12:42:01.457Z,1.00
2022-09-22T12:44:44.423Z,0.70
2022-09-22T12:47:25.963Z,0.50
2022-09-22T12:49:56.883Z,0.57
2022-09-22T12:52:39.445Z,0.65
2022-09-22T12:55:19.400Z,0.90
2022-09-22T12:57:50.720Z,0.70
2022-09-22T13:00:36.199Z,0.80
2022-09-22T13:03:24.573Z,0.80
2022-09-22T13:05:55.496Z,0.80
2022-09-22T13:08:25.263Z,0.77
2022-09-22T13:11:00.673Z,0.65
2022-09-22T13:13:40.647Z,0.52
2022-09-22T13:16:15.889Z,0.40
2022-09-22T13:18:51.986Z,0.60
2022-09-22T13:21:26.920Z,0.82
2022-09-22T13:24:00.136Z,0.30
2022-09-22T13:26:38.226Z,0.45
2022-09-22T13:29:15.580Z,0.80
2022-09-22T13:31:51.106Z,0.60
2022-09-22T13:34:22.753Z,0.82
2022-09-22T13:36:51.831Z,0.40
2022-09-22T13:39:21.015Z,1.02
2022-09-22T13:41:52.323Z,0.60
2022-09-22T13:44:25.062Z,1.35
2022-09-22T13:46:52.647Z,1.20
2022-09-22T13:49:44.660Z,1.13
2022-09-22T13:52:19.071Z,0.60
2022-09-22T13:54:50.105Z,0.70
2022-09-22T13:57:23.815Z,0.73
2022-09-22T13:59:52.345Z,0.50
2022-09-22T14:02:29.390Z,0.60
2022-09-22T14:05:02.468Z,0.75
2022-09-22T14:07:32.281Z,0.97
2022-09-22T14:10:01.429Z,0.50
2022-09-22T14:12:29.122Z,0.70
2022-09-22T14:14:55.623Z,1.02
2022-09-22T14:17:26.231Z,0.93
2022-09-22T14:20:08.598Z,0.97
2022-09-22T14:22:42.495Z,0.90
2022-09-22T14:25:21.901Z,1.13
2022-09-22T14:27:58.640Z,0.55
2022-09-22T14:30:28.914Z,0.43
2022-09-22T14:33:01.527Z,0.43
2022-09-22T14:35:31.667Z,0.73
2022-09-22T14:38:13.826Z,0.40
2022-09-22T14:40:54.063Z,0.95
2022-09-22T14:43:27.465Z,0.95
2022-09-22T14:45:58.472Z,0.73
2022-09-22T14:48:34.435Z,1.00
2022-09-22T14:51:08.678Z,1.00
2022-09-22T14:53:45.745Z,1.17
2022-09-22T14:56:27.234Z,0.98
2022-09-22T14:58:56.862Z,0.63
2022-09-22T15:01:48.781Z,0.63
2022-09-22T15:04:26.311Z,0.70
2022-09-22T15:06:58.818Z,0.50
2022-09-22T15:09:32.220Z,0.65
2022-09-22T15:12:01.789Z,0.50
2022-09-22T15:14:33.908Z,0.40
2022-09-22T15:17:53.876Z,0.63
2022-09-22T15:20:31.923Z,0.65
2022-09-22T15:22:58.495Z,0.65
2022-09-22T15:25:24.842Z,0.50
2022-09-22T15:27:53.174Z,0.50
2022-09-22T15:30:21.878Z,0.55
2022-09-22T15:32:48.813Z,0.40
2022-09-22T15:35:17.645Z,0.50
2022-09-22T15:37:45.855Z,0.33
2022-09-22T15:40:21.326Z,0.47
2022-09-22T15:43:09.083Z,0.55
2022-09-22T15:45:37.165Z,0.30
2022-09-22T15:48:03.704Z,0.50
2022-09-22T15:50:30.650Z,0.20
2022-09-22T15:52:56.992Z,0.38
2022-09-22T15:55:24.842Z,0.47
2022-09-22T15:57:55.193Z,0.32
2022-09-22T16:00:27.060Z,0.30
2022-09-22T16:02:54.560Z,0.30
2022-09-22T16:05:21.052Z,0.38
2022-09-22T16:07:51.410Z,0.30
2022-09-22T16:10:20.840Z,0.50
2022-09-22T16:12:47.432Z,0.43
2022-09-22T16:15:14.234Z,0.40
2022-09-22T16:17:42.851Z,0.30
2022-09-22T16:20:14.804Z,0.40
2022-09-22T16:22:43.515Z,0.30
2022-09-22T16:25:11.187Z,0.30
2022-09-22T16:27:38.272Z,0.40
2022-09-22T16:30:05.446Z,0.30
2022-09-22T16:32:36.156Z,0.50
2022-09-22T16:35:03.668Z,0.32
2022-09-22T16:37:30.183Z,0.30
2022-09-22T16:39:56.560Z,0.20
2022-09-22T16:42:23.829Z,0.20
2022-09-22T16:44:50.586Z,1.02
2022-09-22T16:47:22.867Z,0.30
2022-09-22T16:49:51.161Z,0.40
2022-09-22T16:52:18.962Z,0.30
2022-09-22T16:54:46.152Z,0.52
2022-09-22T16:57:12.851Z,0.20
2022-09-22T16:59:39.207Z,0.20
2022-09-22T17:02:05.694Z,0.32
2022-09-22T17:04:32.393Z,0.13
2022-09-22T17:06:58.765Z,0.20
2022-09-22T17:09:25.108Z,0.52
2022-09-22T17:11:52.525Z,0.40
2022-09-22T17:14:21.403Z,0.30
2022-09-22T17:16:51.731Z,0.40
2022-09-22T17:19:23.311Z,0.40
2022-09-22T17:21:52.695Z,0.60
2022-09-22T17:24:19.376Z,0.52
2022-09-22T17:26:54.328Z,0.40
2022-09-22T17:29:27.149Z,0.57
2022-09-22T17:31:57.172Z,0.70
2022-09-22T17:34:25.429Z,1.30
2022-09-22T17:36:55.214Z,1.08
2022-09-22T17:39:23.294Z,0.88
2022-09-22T17:41:50.334Z,0.60
2022-09-22T17:44:21.012Z,0.70
2022-09-22T17:47:07.834Z,0.77
2022-09-22T17:49:52.566Z,0.75
2022-09-22T17:52:37.437Z,0.82
2022-09-22T17:55:11.666Z,1.43
2022-09-22T17:57:40.126Z,1.08
2022-09-22T18:00:15.451Z,0.88
2022-09-22T18:02:41.848Z,1.20
2022-09-22T18:05:11.031Z,1.50
2022-09-22T18:07:40.118Z,1.10
2022-09-22T18:10:08.365Z,1.40
2022-09-22T18:12:35.491Z,1.58
2022-09-22T18:15:03.735Z,1.60
2022-09-22T18:17:41.733Z,1.45
2022-09-22T18:20:17.945Z,1.20
2022-09-22T18:22:47.673Z,1.38
2022-09-22T18:25:15.258Z,1.63
2022-09-22T18:27:42.215Z,2.20
2022-09-22T18:30:13.079Z,1.33
2022-09-22T18:32:41.743Z,1.60
2022-09-22T18:35:08.154Z,1.20
2022-09-22T18:37:34.533Z,1.33
2022-09-22T18:40:01.055Z,2.47
2022-09-22T18:42:27.634Z,1.88
2022-09-22T18:44:53.976Z,1.47
2022-09-22T18:47:22.915Z,2.05
2022-09-22T18:49:51.206Z,2.30
2022-09-22T18:52:24.395Z,2.10
2022-09-22T18:54:53.689Z,2.33
2022-09-22T18:57:21.623Z,1.40
2022-09-22T18:59:50.855Z,2.05
2022-09-22T19:02:21.326Z,2.05
2022-09-22T19:04:48.518Z,1.70
2022-09-22T19:07:35.593Z,2.55
2022-09-22T19:10:04.364Z,1.50
2022-09-22T19:12:36.955Z,2.53
2022-09-22T19:15:03.767Z,1.70
2022-09-22T19:17:30.287Z,2.00
2022-09-22T19:19:56.603Z,2.38
2022-09-22T19:22:23.143Z,1.67
2022-09-22T19:24:50.724Z,2.30
2022-09-22T19:27:19.046Z,2.45
2022-09-22T19:29:45.358Z,2.03
2022-09-22T19:32:11.885Z,2.20
2022-09-22T19:34:38.547Z,2.30
2022-09-22T19:37:06.130Z,2.22
2022-09-22T19:39:32.633Z,2.13
2022-09-22T19:41:59.975Z,2.22
2022-09-22T19:44:27.102Z,2.95
2022-09-22T19:46:53.691Z,2.70
2022-09-22T19:49:19.998Z,2.50
2022-09-22T19:51:46.336Z,2.90
2022-09-22T19:54:12.696Z,2.55
2022-09-22T19:56:39.177Z,2.53
2022-09-22T19:59:07.309Z,2.70
2022-09-22T20:01:40.181Z,2.40
2022-09-22T20:04:12.355Z,3.35
2022-09-22T20:06:39.072Z,3.50
2022-09-22T20:09:05.384Z,2.50
2022-09-22T20:11:34.438Z,3.23
2022-09-22T20:14:19.332Z,3.78
2022-09-22T20:16:56.606Z,3.42
2022-09-22T20:19:25.372Z,3.15
2022-09-22T20:21:53.918Z,3.08
2022-09-22T20:24:21.968Z,3.30
2022-09-22T20:26:48.348Z,3.33
2022-09-22T20:29:16.589Z,3.30
2022-09-22T20:31:43.488Z,3.38
2022-09-22T20:34:15.027Z,4.13
2022-09-22T20:36:43.130Z,3.67
2022-09-22T20:39:15.447Z,3.70
2022-09-22T20:41:43.280Z,3.78
2022-09-22T20:44:14.449Z,2.88
2022-09-22T20:46:42.475Z,3.10
2022-09-22T20:49:12.774Z,3.93
2022-09-22T20:51:39.772Z,3.97
2022-09-22T20:54:07.220Z,4.45
2022-09-22T20:56:34.105Z,4.28
2022-09-22T20:59:01.961Z,4.30
2022-09-22T21:01:28.474Z,3.80
2022-09-22T21:03:55.548Z,3.60
2022-09-22T21:06:22.522Z,4.55
2022-09-22T21:09:07.481Z,4.45
2022-09-22T21:11:34.219Z,4.35
2022-09-22T21:14:03.803Z,5.07
2022-09-22T21:16:30.844Z,4.53
2022-09-22T21:19:01.968Z,4.95
2022-09-22T21:21:31.077Z,4.57
2022-09-22T21:23:58.458Z,4.57
2022-09-22T21:26:24.827Z,4.20
2022-09-22T21:28:52.113Z,4.78
2022-09-22T21:31:19.719Z,3.67
2022-09-22T21:33:47.195Z,3.80
2022-09-22T21:36:16.452Z,3.80
2022-09-22T21:38:44.739Z,4.10
2022-09-22T21:41:15.872Z,3.97
2022-09-22T21:43:42.572Z,4.45
2022-09-22T21:46:12.712Z,4.05
2022-09-22T21:48:39.540Z,4.55
2022-09-22T21:51:11.679Z,4.07
2022-09-22T21:53:39.343Z,4.55
2022-09-22T21:56:10.500Z,4.72
2022-09-22T21:58:38.665Z,4.03
2022-09-22T22:01:25.257Z,4.28
2022-09-22T22:03:53.406Z,4.27
2022-09-22T22:06:21.006Z,5.13
2022-09-22T22:08:51.126Z,5.22
2022-09-22T22:11:22.362Z,5.18
2022-09-22T22:13:52.089Z,4.35
2022-09-22T22:16:21.540Z,3.73
2022-09-22T22:18:48.189Z,4.07
2022-09-22T22:21:18.525Z,4.53
2022-09-22T22:23:49.814Z,4.28
2022-09-22T22:26:22.745Z,4.38
2022-09-22T22:28:50.839Z,3.97
2022-09-22T22:31:21.112Z,4.60
2022-09-22T22:33:47.786Z,4.63
2022-09-22T22:36:16.469Z,3.67
2022-09-22T22:38:47.095Z,3.83
2022-09-22T22:41:15.963Z,4.10
2022-09-22T22:43:43.825Z,4.45
2022-09-22T22:46:12.016Z,4.57
2022-09-22T22:48:38.587Z,4.53
2022-09-22T22:51:16.031Z,4.93
2022-09-22T22:53:43.463Z,5.47
2022-09-22T22:56:13.978Z,5.03
2022-09-22T22:58:40.277Z,5.28
2022-09-22T23:01:15.948Z,5.07
2022-09-22T23:03:48.007Z,5.03
2022-09-22T23:06:17.140Z,4.77
2022-09-22T23:08:44.219Z,4.90
2022-09-22T23:11:12.899Z,4.85
2022-09-22T23:13:45.051Z,4.45
2022-09-22T23:16:13.905Z,4.90
2022-09-22T23:18:43.206Z,4.30
2022-09-22T23:21:12.447Z,5.47
2022-09-22T23:23:40.162Z,4.13
2022-09-22T23:26:07.414Z,4.50
2022-09-22T23:28:35.851Z,4.45
2022-09-22T23:31:09.283Z,4.50
2022-09-22T23:33:37.202Z,4.68
2022-09-22T23:36:05.519Z,4.40
2022-09-22T23:38:33.167Z,4.57
2022-09-22T23:40:59.981Z,4.95
2022-09-22T23:43:27.963Z,4.30
2022-09-22T23:45:55.155Z,4.32
2022-09-22T23:48:23.478Z,4.85
2022-09-22T23:50:52.509Z,4.20
2022-09-22T23:53:21.154Z,5.50
2022-09-22T23:55:47.511Z,5.17
2022-09-22T23:58:16.830Z,5.13
